createdAt,value
2017-06-19T00:00:18.253Z,0
2017-06-19T00:01:18.289Z,0
2017-06-19T00:02:18.300Z,0
2017-06-19T00:03:18.366Z,0
2017-06-19T00:04:18.401Z,0
2017-06-19T00:05:18.422Z,0
2017-06-19T00:06:18.416Z,0
2017-06-19T00:07:18.478Z,0
2017-06-19T00:08:18.544Z,0
2017-06-19T00:09:18.560Z,0
2017-06-19T00:10:18.598Z,0
2017-06-19T00:11:18.618Z,0
2017-06-19T00:12:18.674Z,0
2017-06-19T00:13:18.714Z,0
2017-06-19T00:14:18.762Z,0
2017-06-19T00:15:18.796Z,0
2017-06-19T00:16:18.828Z,0
2017-06-19T00:17:18.860Z,0
2017-06-19T00:18:18.905Z,0
2017-06-19T00:19:18.924Z,0
2017-06-19T00:20:18.961Z,0
2017-06-19T00:21:19.003Z,0
2017-06-19T00:22:19.056Z,0
2017-06-19T00:23:19.085Z,0
2017-06-19T00:24:19.095Z,0
2017-06-19T00:25:19.159Z,0
2017-06-19T00:26:19.165Z,0
2017-06-19T00:27:19.206Z,0
2017-06-19T00:28:19.250Z,0
2017-06-19T00:29:19.301Z,0
2017-06-19T00:30:19.309Z,0
2017-06-19T00:31:19.366Z,0
2017-06-19T00:32:19.390Z,0
2017-06-19T00:33:19.427Z,0
2017-06-19T00:34:19.461Z,0
2017-06-19T00:35:19.506Z,0
2017-06-19T00:36:19.549Z,0
2017-06-19T00:37:19.581Z,0
2017-06-19T00:38:19.596Z,0
2017-06-19T00:39:19.666Z,0
2017-06-19T00:40:19.700Z,0
2017-06-19T00:41:19.720Z,0
2017-06-19T00:42:19.772Z,0
2017-06-19T00:43:19.787Z,0
2017-06-19T00:44:19.828Z,0
2017-06-19T00:45:19.860Z,0
2017-06-19T00:46:19.906Z,0
2017-06-19T00:47:19.928Z,0
2017-06-19T00:48:19.963Z,0
2017-06-19T00:49:19.990Z,0
2017-06-19T00:50:20.060Z,0
2017-06-19T00:51:20.087Z,0
2017-06-19T00:52:20.092Z,0
2017-06-19T00:53:20.163Z,0
2017-06-19T00:54:20.202Z,0
2017-06-19T00:55:20.210Z,0
2017-06-19T00:56:20.262Z,0
2017-06-19T00:57:20.304Z,0
2017-06-19T00:58:20.327Z,0
2017-06-19T00:59:20.359Z,0
2017-06-19T01:00:20.408Z,0
2017-06-19T01:01:20.434Z,0
2017-06-19T01:02:20.524Z,0
2017-06-19T01:03:20.470Z,0
2017-06-19T01:04:20.554Z,0
2017-06-19T01:05:20.588Z,0
2017-06-19T01:06:20.603Z,0
2017-06-19T01:07:20.655Z,0
2017-06-19T01:08:20.686Z,0
2017-06-19T01:09:20.714Z,0
2017-06-19T01:10:20.747Z,0
2017-06-19T01:11:20.801Z,0
2017-06-19T01:12:20.829Z,0
2017-06-19T01:13:20.863Z,0
2017-06-19T01:14:20.906Z,0
2017-06-19T01:15:20.930Z,0
2017-06-19T01:16:20.960Z,0
2017-06-19T01:17:20.985Z,0
2017-06-19T01:18:21.047Z,0
2017-06-19T01:19:21.066Z,0
2017-06-19T01:20:21.094Z,0
2017-06-19T01:21:21.130Z,0
2017-06-19T01:22:21.153Z,0
2017-06-19T01:23:21.213Z,0
2017-06-19T01:24:21.240Z,0
2017-06-19T01:25:21.297Z,0
2017-06-19T01:26:21.330Z,0
2017-06-19T01:27:21.360Z,0
2017-06-19T01:28:21.404Z,0
2017-06-19T01:29:21.435Z,0
2017-06-19T01:30:21.453Z,0
2017-06-19T01:31:21.506Z,0
2017-06-19T01:32:21.555Z,0
2017-06-19T01:33:21.571Z,0
2017-06-19T01:34:21.604Z,0
2017-06-19T01:35:21.655Z,0
2017-06-19T01:36:21.682Z,0
2017-06-19T01:37:21.711Z,0
2017-06-19T01:38:21.740Z,0
2017-06-19T01:39:21.795Z,0
2017-06-19T01:40:21.830Z,0
2017-06-19T01:41:21.857Z,0
2017-06-19T01:42:21.903Z,0
2017-06-19T01:43:21.928Z,0
2017-06-19T01:44:21.962Z,0
2017-06-19T01:45:21.973Z,0
2017-06-19T01:46:22.033Z,0
2017-06-19T01:47:22.062Z,0
2017-06-19T01:48:22.108Z,0
2017-06-19T01:49:22.128Z,0
2017-06-19T01:50:22.179Z,0
2017-06-19T01:51:22.198Z,0
2017-06-19T01:52:22.247Z,0
2017-06-19T01:53:22.290Z,0
2017-06-19T01:54:22.306Z,0
2017-06-19T01:55:22.331Z,0
2017-06-19T01:56:22.349Z,0
2017-06-19T01:57:22.431Z,0
2017-06-19T01:58:22.463Z,4
2017-06-19T01:59:22.500Z,4
2017-06-19T02:00:22.512Z,4
2017-06-19T02:01:22.548Z,0
2017-06-19T02:02:22.602Z,0
2017-06-19T02:03:22.597Z,4
2017-06-19T02:04:22.667Z,4
2017-06-19T02:05:22.721Z,0
2017-06-19T02:06:22.747Z,4
2017-06-19T02:07:22.761Z,4
2017-06-19T02:08:22.790Z,4
2017-06-19T02:09:22.852Z,4
2017-06-19T02:10:22.883Z,4
2017-06-19T02:11:22.902Z,8
2017-06-19T02:12:22.966Z,4
2017-06-19T02:13:22.994Z,8
2017-06-19T02:14:23.007Z,8
2017-06-19T02:15:23.066Z,8
2017-06-19T02:16:23.106Z,12
2017-06-19T02:17:23.109Z,12
2017-06-19T02:18:23.162Z,12
2017-06-19T02:19:23.201Z,16
2017-06-19T02:20:23.239Z,16
2017-06-19T02:21:23.267Z,20
2017-06-19T02:22:23.300Z,20
2017-06-19T02:23:23.338Z,24
2017-06-19T02:24:23.362Z,24
2017-06-19T02:25:23.408Z,28
2017-06-19T02:26:23.459Z,28
2017-06-19T02:27:23.461Z,32
2017-06-19T02:28:23.503Z,36
2017-06-19T02:29:23.562Z,40
2017-06-19T02:30:23.585Z,44
2017-06-19T02:31:23.610Z,52
2017-06-19T02:32:23.659Z,52
2017-06-19T02:33:23.697Z,56
2017-06-19T02:34:23.729Z,64
2017-06-19T02:35:23.762Z,68
2017-06-19T02:36:23.808Z,76
2017-06-19T02:37:23.811Z,80
2017-06-19T02:38:23.862Z,84
2017-06-19T02:39:23.883Z,96
2017-06-19T02:40:23.914Z,100
2017-06-19T02:41:23.976Z,108
2017-06-19T02:42:24.007Z,116
2017-06-19T02:43:24.047Z,124
2017-06-19T02:44:24.081Z,132
2017-06-19T02:45:24.199Z,144
2017-06-19T02:46:24.155Z,152
2017-06-19T02:47:24.162Z,164
2017-06-19T02:48:24.211Z,176
2017-06-19T02:49:24.233Z,184
2017-06-19T02:50:24.298Z,196
2017-06-19T02:51:24.334Z,208
2017-06-19T02:52:24.391Z,224
2017-06-19T02:53:24.401Z,232
2017-06-19T02:54:24.429Z,248
2017-06-19T02:55:24.460Z,260
2017-06-19T02:56:24.492Z,276
2017-06-19T02:57:24.529Z,288
2017-06-19T02:58:24.563Z,308
2017-06-19T02:59:24.614Z,320
2017-06-19T03:00:24.629Z,340
2017-06-19T03:01:24.673Z,352
2017-06-19T03:02:24.703Z,368
2017-06-19T03:03:24.750Z,384
2017-06-19T03:04:24.761Z,404
2017-06-19T03:05:24.824Z,420
2017-06-19T03:06:24.842Z,440
2017-06-19T03:07:24.869Z,460
2017-06-19T03:08:24.890Z,480
2017-06-19T03:09:24.957Z,500
2017-06-19T03:10:24.971Z,524
2017-06-19T03:11:25.019Z,544
2017-06-19T03:12:25.063Z,564
2017-06-19T03:13:25.069Z,584
2017-06-19T03:14:25.123Z,604
2017-06-19T03:15:25.149Z,624
2017-06-19T03:16:25.212Z,644
2017-06-19T03:17:25.215Z,664
2017-06-19T03:18:25.267Z,680
2017-06-19T03:19:25.286Z,700
2017-06-19T03:20:25.336Z,724
2017-06-19T03:21:25.371Z,740
2017-06-19T03:22:25.403Z,760
2017-06-19T03:23:25.447Z,784
2017-06-19T03:24:25.475Z,804
2017-06-19T03:25:25.515Z,824
2017-06-19T03:26:25.543Z,844
2017-06-19T03:27:25.582Z,868
2017-06-19T03:28:25.623Z,888
2017-06-19T03:29:25.638Z,908
2017-06-19T03:30:25.691Z,928
2017-06-19T03:31:25.716Z,952
2017-06-19T03:32:25.760Z,972
2017-06-19T03:33:25.790Z,996
2017-06-19T03:34:25.821Z,1020
2017-06-19T03:35:25.865Z,1044
2017-06-19T03:36:25.903Z,1068
2017-06-19T03:37:25.942Z,1092
2017-06-19T03:38:25.966Z,1116
2017-06-19T03:39:26.003Z,1136
2017-06-19T03:40:26.042Z,1160
2017-06-19T03:41:26.075Z,1184
2017-06-19T03:42:26.113Z,1204
2017-06-19T03:43:26.138Z,1228
2017-06-19T03:44:26.175Z,1248
2017-06-19T03:45:26.217Z,1272
2017-06-19T03:46:26.227Z,1292
2017-06-19T03:47:26.275Z,1312
2017-06-19T03:48:26.322Z,1332
2017-06-19T03:49:26.340Z,1356
2017-06-19T03:50:26.368Z,1380
2017-06-19T03:51:26.418Z,1396
2017-06-19T03:52:26.466Z,1420
2017-06-19T03:53:26.493Z,1440
2017-06-19T03:54:26.518Z,1460
2017-06-19T03:55:26.557Z,1480
2017-06-19T03:56:26.594Z,1504
2017-06-19T03:57:26.634Z,1524
2017-06-19T03:58:26.668Z,1548
2017-06-19T03:59:26.716Z,1568
2017-06-19T04:01:20.825Z,1616
2017-06-19T04:01:49.481Z,1632
2017-06-19T04:02:49.577Z,1664
2017-06-19T04:03:49.577Z,1716
2017-06-19T04:04:49.569Z,1776
2017-06-19T04:05:49.610Z,1852
2017-06-19T04:06:49.629Z,1920
2017-06-19T04:07:49.681Z,2008
2017-06-19T04:08:49.734Z,2172
2017-06-19T04:09:49.756Z,2340
2017-06-19T04:10:49.798Z,2588
2017-06-19T04:11:49.816Z,3080
2017-06-19T04:12:49.873Z,4120
2017-06-19T04:13:49.881Z,5596
2017-06-19T04:14:49.946Z,7048
2017-06-19T04:15:49.942Z,7932
2017-06-19T04:16:50.009Z,8208
2017-06-19T04:17:50.052Z,7884
2017-06-19T04:18:50.065Z,7496
2017-06-19T04:19:50.150Z,6888
2017-06-19T04:20:50.132Z,5724
2017-06-19T04:21:50.172Z,4712
2017-06-19T04:22:50.243Z,5372
2017-06-19T04:23:50.234Z,6976
2017-06-19T04:24:50.341Z,8336
2017-06-19T04:25:50.347Z,9120
2017-06-19T04:26:50.361Z,9372
2017-06-19T04:27:50.480Z,9244
2017-06-19T04:28:50.440Z,9156
2017-06-19T04:29:50.504Z,8880
2017-06-19T04:30:50.514Z,8028
2017-06-19T04:31:50.548Z,6948
2017-06-19T04:32:50.605Z,5836
2017-06-19T04:33:50.677Z,4668
2017-06-19T04:34:50.729Z,4568
2017-06-19T04:35:50.733Z,5000
2017-06-19T04:36:50.759Z,5172
2017-06-19T04:37:50.806Z,5080
2017-06-19T04:38:50.855Z,5296
2017-06-19T04:39:50.843Z,5104
2017-06-19T04:40:50.935Z,4796
2017-06-19T04:41:50.969Z,4776
2017-06-19T04:42:50.978Z,4972
2017-06-19T04:43:51.018Z,5792
2017-06-19T04:44:51.164Z,6664
2017-06-19T04:45:51.121Z,8240
2017-06-19T04:46:51.146Z,9208
2017-06-19T04:47:51.152Z,8372
2017-06-19T04:48:51.276Z,7740
2017-06-19T04:49:51.286Z,7788
2017-06-19T04:50:51.319Z,7744
2017-06-19T04:51:51.363Z,6748
2017-06-19T04:52:51.385Z,5852
2017-06-19T04:53:51.445Z,5596
2017-06-19T04:54:51.440Z,5664
2017-06-19T04:55:51.497Z,5072
2017-06-19T04:56:51.582Z,5080
2017-06-19T04:57:51.656Z,5336
2017-06-19T04:58:51.605Z,5236
2017-06-19T04:59:51.647Z,5436
2017-06-19T05:00:51.749Z,5856
2017-06-19T05:01:51.820Z,6076
2017-06-19T05:02:51.831Z,6272
2017-06-19T05:03:51.855Z,6364
2017-06-19T05:04:51.881Z,7040
2017-06-19T05:05:52.010Z,7900
2017-06-19T05:06:51.990Z,8116
2017-06-19T05:07:52.033Z,10156
2017-06-19T05:08:51.980Z,19744
2017-06-19T05:09:52.079Z,20224
2017-06-19T05:10:52.079Z,8676
2017-06-19T05:11:52.137Z,6076
2017-06-19T05:12:52.200Z,6888
2017-06-19T05:13:52.220Z,8344
2017-06-19T05:14:52.212Z,11332
2017-06-19T05:15:52.322Z,22400
2017-06-19T05:16:52.354Z,28672
2017-06-19T05:17:52.372Z,27136
2017-06-19T05:18:52.463Z,18656
2017-06-19T05:19:52.478Z,9568
2017-06-19T05:20:52.482Z,6672
2017-06-19T05:21:52.570Z,7340
2017-06-19T05:22:52.584Z,9220
2017-06-19T05:23:52.606Z,8656
2017-06-19T05:24:52.611Z,7668
2017-06-19T05:25:52.724Z,6888
2017-06-19T05:26:52.761Z,7384
2017-06-19T05:27:52.798Z,5488
2017-06-19T05:28:52.839Z,5188
2017-06-19T05:29:52.882Z,5192
2017-06-19T05:30:52.938Z,4952
2017-06-19T05:31:52.993Z,5028
2017-06-19T05:32:53.036Z,4416
2017-06-19T05:33:52.975Z,6856
2017-06-19T05:34:53.057Z,8100
2017-06-19T05:35:53.083Z,6428
2017-06-19T05:36:53.157Z,6156
2017-06-19T05:37:53.181Z,6828
2017-06-19T05:38:53.206Z,10416
2017-06-19T05:39:53.282Z,9408
2017-06-19T05:40:53.352Z,6052
2017-06-19T05:41:53.400Z,5328
2017-06-19T05:42:53.349Z,5600
2017-06-19T05:43:53.436Z,6112
2017-06-19T05:44:53.446Z,6828
2017-06-19T05:45:53.478Z,8540
2017-06-19T05:46:53.570Z,9152
2017-06-19T05:47:53.569Z,11984
2017-06-19T05:48:53.639Z,13400
2017-06-19T05:49:53.732Z,10148
2017-06-19T05:50:53.708Z,8184
2017-06-19T05:51:53.762Z,6468
2017-06-19T05:52:53.795Z,8972
2017-06-19T05:53:53.814Z,8268
2017-06-19T05:54:53.850Z,6440
2017-06-19T05:55:53.921Z,6260
2017-06-19T05:56:53.940Z,6712
2017-06-19T05:57:53.944Z,9848
2017-06-19T05:58:54.011Z,8380
2017-06-19T05:59:54.106Z,6228
2017-06-19T06:00:54.091Z,6468
2017-06-19T06:01:54.135Z,6208
2017-06-19T06:02:54.192Z,6272
2017-06-19T06:03:54.206Z,6068
2017-06-19T06:04:54.344Z,6404
2017-06-19T06:05:54.376Z,7672
2017-06-19T06:06:54.375Z,32128
2017-06-19T06:07:54.363Z,34944
2017-06-19T06:08:54.432Z,32736
2017-06-19T06:09:54.440Z,19136
2017-06-19T06:10:54.504Z,16480
2017-06-19T06:11:54.610Z,17120
2017-06-19T06:12:54.570Z,33984
2017-06-19T06:13:54.640Z,33856
2017-06-19T06:14:54.648Z,39264
2017-06-19T06:15:54.705Z,43424
2017-06-19T06:16:54.758Z,38688
2017-06-19T06:17:54.764Z,39488
2017-06-19T06:18:54.774Z,36832
2017-06-19T06:19:54.904Z,36992
2017-06-19T06:20:54.921Z,42208
2017-06-19T06:21:54.992Z,44480
2017-06-19T06:22:54.993Z,42688
2017-06-19T06:23:55.056Z,41408
2017-06-19T06:24:55.111Z,42656
2017-06-19T06:25:55.107Z,42720
2017-06-19T06:26:55.205Z,40896
2017-06-19T06:27:55.192Z,40928
2017-06-19T06:28:55.289Z,42304
2017-06-19T06:29:55.312Z,42048
2017-06-19T06:30:55.306Z,39744
2017-06-19T06:31:55.400Z,39936
2017-06-19T06:32:55.422Z,41472
2017-06-19T06:33:55.431Z,42176
2017-06-19T06:34:55.475Z,41408
2017-06-19T06:35:55.549Z,35136
2017-06-19T06:36:55.612Z,29152
2017-06-19T06:37:55.612Z,23424
2017-06-19T06:38:55.669Z,16640
2017-06-19T06:39:55.791Z,13216
2017-06-19T06:40:55.778Z,12408
2017-06-19T06:41:55.788Z,12232
2017-06-19T06:42:55.872Z,12124
2017-06-19T06:43:55.929Z,12032
2017-06-19T06:44:55.980Z,11984
2017-06-19T06:45:56.002Z,11804
2017-06-19T06:46:56.038Z,11880
2017-06-19T06:47:56.098Z,11868
2017-06-19T06:48:56.202Z,11844
2017-06-19T06:49:56.223Z,11776
2017-06-19T06:50:56.223Z,11828
2017-06-19T06:51:56.269Z,11996
2017-06-19T06:52:56.330Z,12080
2017-06-19T06:53:56.391Z,12016
2017-06-19T06:54:56.406Z,12000
2017-06-19T06:55:56.491Z,12004
2017-06-19T06:56:56.573Z,12032
2017-06-19T06:57:56.581Z,12112
2017-06-19T06:58:56.576Z,12140
2017-06-19T06:59:56.645Z,12108
2017-06-19T07:00:56.692Z,12144
2017-06-19T07:01:56.797Z,12280
2017-06-19T07:02:56.817Z,12336
2017-06-19T07:03:56.856Z,12148
2017-06-19T07:04:56.872Z,11900
2017-06-19T07:05:57.010Z,11808
2017-06-19T07:06:57.026Z,11728
2017-06-19T07:07:57.048Z,11760
2017-06-19T07:08:57.100Z,11752
2017-06-19T07:09:57.120Z,11732
2017-06-19T07:10:57.218Z,11620
2017-06-19T07:11:57.236Z,11568
2017-06-19T07:12:57.288Z,11580
2017-06-19T07:13:57.285Z,11552
2017-06-19T07:14:57.406Z,11520
2017-06-19T07:15:57.420Z,11584
2017-06-19T07:16:57.529Z,11668
2017-06-19T07:17:57.477Z,11648
2017-06-19T07:18:57.627Z,11696
2017-06-19T07:19:57.629Z,11728
2017-06-19T07:20:57.617Z,11584
2017-06-19T07:21:57.717Z,11552
2017-06-19T07:22:57.741Z,11680
2017-06-19T07:23:57.818Z,11768
2017-06-19T07:24:57.815Z,11732
2017-06-19T07:25:57.929Z,11700
2017-06-19T07:26:57.985Z,11676
2017-06-19T07:27:58.024Z,11684
2017-06-19T07:28:58.051Z,11660
2017-06-19T07:29:58.129Z,11656
2017-06-19T07:30:58.112Z,11608
2017-06-19T07:31:58.205Z,11672
2017-06-19T07:32:58.212Z,11828
2017-06-19T07:33:58.336Z,11972
2017-06-19T07:34:58.349Z,12084
2017-06-19T07:35:58.403Z,12188
2017-06-19T07:36:58.470Z,12328
2017-06-19T07:37:58.477Z,12564
2017-06-19T07:38:58.512Z,12724
2017-06-19T07:39:58.559Z,12780
2017-06-19T07:40:58.635Z,13016
2017-06-19T07:41:58.665Z,13420
2017-06-19T07:42:58.734Z,14304
2017-06-19T07:43:58.823Z,14560
2017-06-19T07:44:58.868Z,16096
2017-06-19T07:45:58.932Z,19968
2017-06-19T07:46:58.926Z,21792
2017-06-19T07:47:58.925Z,25600
2017-06-19T07:48:58.996Z,28800
2017-06-19T07:49:59.056Z,31008
2017-06-19T07:50:59.080Z,36896
2017-06-19T07:51:59.172Z,35936
2017-06-19T07:52:59.193Z,34912
2017-06-19T07:53:59.308Z,32960
2017-06-19T07:54:59.431Z,33568
2017-06-19T07:55:59.354Z,39680
2017-06-19T07:56:59.405Z,44800
2017-06-19T07:57:59.504Z,52064
2017-06-19T07:58:59.535Z,59360
2017-06-19T07:59:59.742Z,62976
2017-06-19T08:00:59.655Z,62880
2017-06-19T08:01:59.707Z,63392
2017-06-19T08:02:59.728Z,69088
2017-06-19T08:03:59.781Z,69856
2017-06-19T08:04:59.830Z,56928
2017-06-19T08:05:59.942Z,50400
2017-06-19T08:06:59.946Z,58016
2017-06-19T08:07:59.961Z,60992
2017-06-19T08:09:00.023Z,55648
2017-06-19T08:10:00.103Z,52576
2017-06-19T08:11:00.110Z,50080
2017-06-19T08:12:00.207Z,43040
2017-06-19T08:13:00.249Z,42048
2017-06-19T08:14:00.365Z,45760
2017-06-19T08:15:00.305Z,47904
2017-06-19T08:16:00.409Z,48448
2017-06-19T08:17:00.374Z,49056
2017-06-19T08:18:00.510Z,52544
2017-06-19T08:19:00.509Z,55648
2017-06-19T08:20:00.618Z,52640
2017-06-19T08:21:00.590Z,49856
2017-06-19T08:22:00.687Z,47648
2017-06-19T08:23:00.713Z,45760
2017-06-19T08:24:00.773Z,48000
2017-06-19T08:25:00.831Z,51776
2017-06-19T08:26:00.890Z,50304
2017-06-19T08:27:00.925Z,45248
2017-06-19T08:28:01.032Z,49056
2017-06-19T08:29:01.007Z,51712
2017-06-19T08:30:01.068Z,53152
2017-06-19T08:31:01.116Z,57568
2017-06-19T08:32:01.190Z,59200
2017-06-19T08:33:01.196Z,59712
2017-06-19T08:34:01.279Z,57728
2017-06-19T08:35:01.321Z,49472
2017-06-19T08:36:01.398Z,43360
2017-06-19T08:37:01.411Z,46240
2017-06-19T08:38:01.490Z,51008
2017-06-19T08:39:01.528Z,49504
2017-06-19T08:40:01.647Z,47936
2017-06-19T08:41:01.621Z,50912
2017-06-19T08:42:01.764Z,52224
2017-06-19T08:43:01.687Z,51840
2017-06-19T08:44:01.828Z,50784
2017-06-19T08:45:01.816Z,49088
2017-06-19T08:46:01.889Z,47424
2017-06-19T08:47:01.963Z,49504
2017-06-19T08:48:02.040Z,53664
2017-06-19T08:49:02.021Z,54240
2017-06-19T08:50:02.125Z,53152
2017-06-19T08:51:02.140Z,48640
2017-06-19T08:52:02.239Z,44256
2017-06-19T08:53:02.266Z,44640
2017-06-19T08:54:02.348Z,45888
2017-06-19T08:55:02.371Z,47296
2017-06-19T08:56:02.616Z,51008
2017-06-19T08:57:02.529Z,56704
2017-06-19T08:58:02.541Z,57024
2017-06-19T08:59:02.545Z,53600
2017-06-19T09:00:02.635Z,49824
2017-06-19T09:01:02.701Z,49120
2017-06-19T09:02:02.716Z,46528
2017-06-19T09:03:02.788Z,44256
2017-06-19T09:04:02.835Z,44192
2017-06-19T09:05:02.881Z,43808
2017-06-19T09:06:02.897Z,44032
2017-06-19T09:07:03.004Z,46208
2017-06-19T09:08:02.984Z,49248
2017-06-19T09:09:03.059Z,57696
2017-06-19T09:10:03.138Z,65248
2017-06-19T09:11:03.192Z,66912
2017-06-19T09:12:03.227Z,64352
2017-06-19T09:13:03.276Z,62688
2017-06-19T09:14:03.334Z,63808
2017-06-19T09:15:03.393Z,64128
2017-06-19T09:16:03.447Z,67488
2017-06-19T09:17:03.537Z,70848
2017-06-19T09:18:03.562Z,66976
2017-06-19T09:19:03.569Z,61376
2017-06-19T09:20:03.657Z,60096
2017-06-19T09:21:03.703Z,61376
2017-06-19T09:22:03.726Z,63680
2017-06-19T09:23:03.852Z,62560
2017-06-19T09:24:03.894Z,60992
2017-06-19T09:25:04.101Z,60192
2017-06-19T09:26:04.003Z,60800
2017-06-19T09:27:04.026Z,60576
2017-06-19T09:28:04.130Z,60896
2017-06-19T09:29:04.125Z,64832
2017-06-19T09:30:04.343Z,70528
2017-06-19T09:31:04.245Z,69824
2017-06-19T09:32:04.303Z,61856
2017-06-19T09:33:04.384Z,53568
2017-06-19T09:34:04.646Z,50752
2017-06-19T09:35:04.493Z,54592
2017-06-19T09:36:04.530Z,60000
2017-06-19T09:37:04.608Z,61504
2017-06-19T09:38:04.647Z,57312
2017-06-19T09:39:04.724Z,54656
2017-06-19T09:40:04.769Z,53440
2017-06-19T09:41:04.846Z,49088
2017-06-19T09:42:04.840Z,42720
2017-06-19T09:43:04.922Z,22912
2017-06-19T09:44:04.948Z,18400
2017-06-19T09:45:05.021Z,33728
2017-06-19T09:46:05.070Z,41760
2017-06-19T09:47:05.123Z,40224
2017-06-19T09:48:05.173Z,35744
2017-06-19T09:49:05.257Z,30880
2017-06-19T09:50:05.350Z,26304
2017-06-19T09:51:05.388Z,25216
2017-06-19T09:52:05.412Z,22784
2017-06-19T09:53:05.477Z,19840
2017-06-19T09:54:05.554Z,18848
2017-06-19T09:55:05.553Z,18880
2017-06-19T09:56:05.639Z,19008
2017-06-19T09:57:05.683Z,18432
2017-06-19T09:58:05.691Z,18304
2017-06-19T09:59:05.842Z,18304
2017-06-19T10:00:05.852Z,18496
2017-06-19T10:01:06.035Z,18464
2017-06-19T10:02:05.961Z,18144
2017-06-19T10:03:06.021Z,17696
2017-06-19T10:04:06.072Z,17376
2017-06-19T10:05:06.177Z,18560
2017-06-19T10:06:06.250Z,18944
2017-06-19T10:07:06.286Z,18784
2017-06-19T10:08:06.352Z,18784
2017-06-19T10:09:06.352Z,6600
2017-06-19T10:10:06.419Z,6304
2017-06-19T10:11:06.428Z,6504
2017-06-19T10:12:06.490Z,7204
2017-06-19T10:13:06.607Z,20256
2017-06-19T10:14:06.648Z,20224
2017-06-19T10:15:06.711Z,18720
2017-06-19T10:16:06.763Z,17408
2017-06-19T10:17:06.787Z,16832
2017-06-19T10:18:06.840Z,17664
2017-06-19T10:19:06.985Z,19552
2017-06-19T10:20:06.946Z,18784
2017-06-19T10:21:06.973Z,19904
2017-06-19T10:22:07.017Z,17312
2017-06-19T10:23:07.081Z,11992
2017-06-19T10:24:07.130Z,20864
2017-06-19T10:25:07.239Z,19936
2017-06-19T10:26:07.253Z,18432
2017-06-19T10:27:07.345Z,17376
2017-06-19T10:28:07.318Z,16928
2017-06-19T10:29:07.421Z,16288
2017-06-19T10:30:07.485Z,16448
2017-06-19T10:31:07.694Z,16928
2017-06-19T10:32:07.545Z,16832
2017-06-19T10:33:07.619Z,16448
2017-06-19T10:34:07.661Z,15968
2017-06-19T10:35:07.703Z,15584
2017-06-19T10:36:07.743Z,15296
2017-06-19T10:37:07.795Z,15168
2017-06-19T10:38:07.833Z,14816
2017-06-19T10:39:07.900Z,14720
2017-06-19T10:40:07.957Z,16736
2017-06-19T10:41:08.055Z,16640
2017-06-19T10:42:08.061Z,15648
2017-06-19T10:43:08.080Z,16288
2017-06-19T10:44:08.134Z,15968
2017-06-19T10:45:08.250Z,15936
2017-06-19T10:46:08.254Z,15808
2017-06-19T10:47:08.310Z,15264
2017-06-19T10:48:08.356Z,14656
2017-06-19T10:49:08.385Z,14208
2017-06-19T10:50:08.482Z,13600
2017-06-19T10:51:08.479Z,13020
2017-06-19T10:52:08.528Z,12544
2017-06-19T10:53:08.654Z,11324
2017-06-19T10:54:08.639Z,9396
2017-06-19T10:55:08.762Z,8152
2017-06-19T10:56:08.762Z,5132
2017-06-19T10:57:08.772Z,4588
2017-06-19T10:58:08.836Z,7072
2017-06-19T10:59:08.862Z,5524
2017-06-19T11:00:08.896Z,6544
2017-06-19T11:01:08.918Z,6924
2017-06-19T11:02:09.077Z,6624
2017-06-19T11:03:09.052Z,6376
2017-06-19T11:04:09.066Z,6476
2017-06-19T11:05:09.137Z,6352
2017-06-19T11:06:09.212Z,6052
2017-06-19T11:07:09.264Z,5604
2017-06-19T11:08:09.358Z,5424
2017-06-19T11:09:09.361Z,5304
2017-06-19T11:10:09.368Z,5212
2017-06-19T11:11:09.441Z,5144
2017-06-19T11:12:09.439Z,5044
2017-06-19T11:13:09.484Z,4916
2017-06-19T11:14:09.560Z,4776
2017-06-19T11:15:09.609Z,4648
2017-06-19T11:16:09.622Z,4544
2017-06-19T11:17:09.717Z,4464
2017-06-19T11:18:09.738Z,4444
2017-06-19T11:19:09.750Z,4408
2017-06-19T11:20:09.830Z,4364
2017-06-19T11:21:09.860Z,4356
2017-06-19T11:22:09.924Z,4332
2017-06-19T11:23:09.954Z,4244
2017-06-19T11:24:10.030Z,4176
2017-06-19T11:25:10.042Z,4092
2017-06-19T11:26:10.109Z,4020
2017-06-19T11:27:10.119Z,3984
2017-06-19T11:28:10.188Z,3984
2017-06-19T11:29:10.185Z,3852
2017-06-19T11:30:10.214Z,3712
2017-06-19T11:31:10.335Z,3560
2017-06-19T11:32:10.396Z,3476
2017-06-19T11:33:10.391Z,3428
2017-06-19T11:34:10.465Z,3440
2017-06-19T11:35:10.442Z,3432
2017-06-19T11:36:10.542Z,3432
2017-06-19T11:37:10.559Z,3464
2017-06-19T11:38:10.590Z,3516
2017-06-19T11:39:10.659Z,3504
2017-06-19T11:40:10.694Z,3508
2017-06-19T11:41:10.752Z,3584
2017-06-19T11:42:10.781Z,3652
2017-06-19T11:43:10.830Z,3736
2017-06-19T11:44:10.830Z,3772
2017-06-19T11:45:10.923Z,3780
2017-06-19T11:46:10.997Z,3624
2017-06-19T11:47:11.031Z,3516
2017-06-19T11:48:11.045Z,3500
2017-06-19T11:49:11.069Z,3440
2017-06-19T11:50:11.160Z,3304
2017-06-19T11:51:11.129Z,3388
2017-06-19T11:52:11.181Z,3520
2017-06-19T11:53:11.299Z,3660
2017-06-19T11:54:11.357Z,3768
2017-06-19T11:55:11.310Z,3824
2017-06-19T11:56:11.349Z,3812
2017-06-19T11:57:11.416Z,3892
2017-06-19T11:58:11.430Z,3960
2017-06-19T11:59:11.482Z,3880
2017-06-19T12:00:11.553Z,3596
2017-06-19T12:01:11.608Z,3416
2017-06-19T12:02:11.627Z,3352
2017-06-19T12:03:11.671Z,3332
2017-06-19T12:04:11.685Z,3360
2017-06-19T12:05:11.899Z,3456
2017-06-19T12:06:11.791Z,3688
2017-06-19T12:07:11.813Z,3804
2017-06-19T12:08:11.861Z,3748
2017-06-19T12:09:11.914Z,3848
2017-06-19T12:10:11.999Z,4328
2017-06-19T12:11:12.041Z,4720
2017-06-19T12:12:12.073Z,4684
2017-06-19T12:13:12.075Z,4420
2017-06-19T12:14:12.141Z,4552
2017-06-19T12:15:12.204Z,4912
2017-06-19T12:16:12.228Z,4800
2017-06-19T12:17:12.272Z,4584
2017-06-19T12:18:12.280Z,4520
2017-06-19T12:19:12.358Z,4328
2017-06-19T12:20:12.459Z,4096
2017-06-19T12:21:12.409Z,3920
2017-06-19T12:22:12.513Z,3860
2017-06-19T12:23:12.572Z,3740
2017-06-19T12:24:12.523Z,3384
2017-06-19T12:25:12.638Z,3472
2017-06-19T12:26:12.642Z,3432
2017-06-19T12:27:12.650Z,3244
2017-06-19T12:28:12.758Z,3404
2017-06-19T12:29:12.818Z,3112
2017-06-19T12:30:12.959Z,2780
2017-06-19T12:31:12.884Z,2632
2017-06-19T12:32:12.903Z,2828
2017-06-19T12:33:12.964Z,2920
2017-06-19T12:34:12.942Z,3028
2017-06-19T12:35:13.011Z,3296
2017-06-19T12:36:13.065Z,3688
2017-06-19T12:37:13.083Z,3676
2017-06-19T12:38:13.179Z,3256
2017-06-19T12:39:13.243Z,2968
2017-06-19T12:40:13.231Z,3076
2017-06-19T12:41:13.258Z,3124
2017-06-19T12:42:13.319Z,2612
2017-06-19T12:43:13.392Z,2516
2017-06-19T12:44:13.425Z,2552
2017-06-19T12:45:13.505Z,2520
2017-06-19T12:46:13.457Z,2504
2017-06-19T12:47:13.523Z,2492
2017-06-19T12:48:13.565Z,2496
2017-06-19T12:49:13.646Z,2496
2017-06-19T12:50:13.674Z,2492
2017-06-19T12:51:13.668Z,2480
2017-06-19T12:52:13.761Z,2484
2017-06-19T12:53:13.745Z,2492
2017-06-19T12:54:13.837Z,2524
2017-06-19T12:55:13.866Z,2592
2017-06-19T12:56:13.877Z,2664
2017-06-19T12:57:13.983Z,2792
2017-06-19T12:58:13.998Z,2856
2017-06-19T12:59:13.997Z,2832
2017-06-19T13:00:14.042Z,2760
2017-06-19T13:01:14.136Z,2780
2017-06-19T13:02:14.174Z,2800
2017-06-19T13:03:14.139Z,2768
2017-06-19T13:04:14.236Z,2612
2017-06-19T13:05:14.327Z,2520
2017-06-19T13:06:14.301Z,2572
2017-06-19T13:07:14.386Z,2636
2017-06-19T13:08:14.451Z,2696
2017-06-19T13:09:14.422Z,2704
2017-06-19T13:10:14.482Z,2696
2017-06-19T13:11:14.581Z,2724
2017-06-19T13:12:14.591Z,2760
2017-06-19T13:13:14.609Z,2764
2017-06-19T13:14:14.620Z,2740
2017-06-19T13:15:14.688Z,2512
2017-06-19T13:16:14.738Z,2324
2017-06-19T13:17:14.774Z,2376
2017-06-19T13:18:14.789Z,2240
2017-06-19T13:19:14.861Z,2160
2017-06-19T13:20:14.886Z,2092
2017-06-19T13:21:14.984Z,2256
2017-06-19T13:22:14.979Z,2344
2017-06-19T13:23:15.028Z,2160
2017-06-19T13:24:15.072Z,2084
2017-06-19T13:25:15.095Z,2072
2017-06-19T13:26:15.129Z,2020